sensor_id;sensor_type;location;lat;lon;timestamp;P1;durP1;ratioP1;P2;durP2;ratioP2
39750;SDS011;37579;51.074;17.004;2023-05-10T00:01:24;11.70;;;9.68;;
39750;SDS011;37579;51.074;17.004;2023-05-10T00:03:49;11.52;;;9.30;;
39750;SDS011;37579;51.074;17.004;2023-05-10T00:06:15;11.13;;;8.88;;
39750;SDS011;37579;51.074;17.004;2023-05-10T00:08:41;10.95;;;9.25;;
39750;SDS011;37579;51.074;17.004;2023-05-10T00:11:07;10.48;;;8.98;;
39750;SDS011;37579;51.074;17.004;2023-05-10T00:13:33;10.27;;;8.43;;
39750;SDS011;37579;51.074;17.004;2023-05-10T00:15:58;9.50;;;8.15;;
39750;SDS011;37579;51.074;17.004;2023-05-10T00:18:24;10.90;;;8.38;;
39750;SDS011;37579;51.074;17.004;2023-05-10T00:20:50;10.27;;;8.15;;
39750;SDS011;37579;51.074;17.004;2023-05-10T00:23:16;8.95;;;7.50;;
39750;SDS011;37579;51.074;17.004;2023-05-10T00:25:42;9.15;;;7.80;;
39750;SDS011;37579;51.074;17.004;2023-05-10T00:28:08;8.30;;;7.35;;
39750;SDS011;37579;51.074;17.004;2023-05-10T00:30:36;8.98;;;6.97;;
39750;SDS011;37579;51.074;17.004;2023-05-10T00:33:02;8.07;;;7.20;;
39750;SDS011;37579;51.074;17.004;2023-05-10T00:35:28;10.65;;;7.55;;
39750;SDS011;37579;51.074;17.004;2023-05-10T00:37:53;7.97;;;7.10;;
39750;SDS011;37579;51.074;17.004;2023-05-10T00:40:19;8.05;;;6.65;;
39750;SDS011;37579;51.074;17.004;2023-05-10T00:42:49;8.30;;;6.72;;
39750;SDS011;37579;51.074;17.004;2023-05-10T00:45:15;9.52;;;7.25;;
39750;SDS011;37579;51.074;17.004;2023-05-10T00:47:41;7.63;;;6.53;;
39750;SDS011;37579;51.074;17.004;2023-05-10T00:50:07;10.75;;;6.70;;
39750;SDS011;37579;51.074;17.004;2023-05-10T00:52:34;8.02;;;6.35;;
39750;SDS011;37579;51.074;17.004;2023-05-10T00:55:00;8.52;;;7.00;;
39750;SDS011;37579;51.074;17.004;2023-05-10T00:57:26;8.65;;;6.75;;
39750;SDS011;37579;51.074;17.004;2023-05-10T00:59:52;8.40;;;6.65;;
39750;SDS011;37579;51.074;17.004;2023-05-10T01:02:18;8.20;;;6.82;;
39750;SDS011;37579;51.074;17.004;2023-05-10T01:04:44;7.57;;;6.47;;
39750;SDS011;37579;51.074;17.004;2023-05-10T01:07:10;7.13;;;6.18;;
39750;SDS011;37579;51.074;17.004;2023-05-10T01:09:36;7.72;;;6.40;;
39750;SDS011;37579;51.074;17.004;2023-05-10T01:12:02;7.80;;;6.47;;
39750;SDS011;37579;51.074;17.004;2023-05-10T01:14:29;7.57;;;6.72;;
39750;SDS011;37579;51.074;17.004;2023-05-10T01:16:55;7.55;;;6.35;;
39750;SDS011;37579;51.074;17.004;2023-05-10T01:19:22;7.60;;;6.25;;
39750;SDS011;37579;51.074;17.004;2023-05-10T01:36:22;6.53;;;5.38;;
39750;SDS011;37579;51.074;17.004;2023-05-10T01:41:52;7.13;;;5.82;;
39750;SDS011;37579;51.074;17.004;2023-05-10T01:47:28;6.82;;;5.68;;
39750;SDS011;37579;51.074;17.004;2023-05-10T01:50:02;6.53;;;5.38;;
39750;SDS011;37579;51.074;17.004;2023-05-10T01:52:30;6.03;;;5.43;;
39750;SDS011;37579;51.074;17.004;2023-05-10T01:55:02;6.63;;;5.72;;
39750;SDS011;37579;51.074;17.004;2023-05-10T01:57:32;6.25;;;5.25;;
39750;SDS011;37579;51.074;17.004;2023-05-10T02:00:01;5.95;;;5.22;;
39750;SDS011;37579;51.074;17.004;2023-05-10T02:02:40;6.07;;;5.05;;
39750;SDS011;37579;51.074;17.004;2023-05-10T02:05:12;5.90;;;4.93;;
39750;SDS011;37579;51.074;17.004;2023-05-10T02:07:40;5.72;;;4.82;;
39750;SDS011;37579;51.074;17.004;2023-05-10T02:10:07;6.03;;;5.43;;
39750;SDS011;37579;51.074;17.004;2023-05-10T02:12:36;6.57;;;5.38;;
39750;SDS011;37579;51.074;17.004;2023-05-10T02:15:05;6.50;;;5.43;;
39750;SDS011;37579;51.074;17.004;2023-05-10T02:17:32;6.78;;;4.68;;
39750;SDS011;37579;51.074;17.004;2023-05-10T02:20:01;6.82;;;5.50;;
39750;SDS011;37579;51.074;17.004;2023-05-10T02:22:29;6.50;;;5.45;;
39750;SDS011;37579;51.074;17.004;2023-05-10T02:24:57;6.00;;;5.05;;
39750;SDS011;37579;51.074;17.004;2023-05-10T02:27:26;5.00;;;4.50;;
39750;SDS011;37579;51.074;17.004;2023-05-10T02:29:54;6.38;;;5.28;;
39750;SDS011;37579;51.074;17.004;2023-05-10T02:32:21;5.70;;;5.00;;
39750;SDS011;37579;51.074;17.004;2023-05-10T02:34:49;5.45;;;4.32;;
39750;SDS011;37579;51.074;17.004;2023-05-10T02:37:18;6.00;;;5.40;;
39750;SDS011;37579;51.074;17.004;2023-05-10T02:39:48;5.47;;;4.97;;
39750;SDS011;37579;51.074;17.004;2023-05-10T02:42:16;5.90;;;4.95;;
39750;SDS011;37579;51.074;17.004;2023-05-10T02:44:45;5.55;;;4.75;;
39750;SDS011;37579;51.074;17.004;2023-05-10T02:47:14;5.28;;;4.78;;
39750;SDS011;37579;51.074;17.004;2023-05-10T02:49:40;5.80;;;4.40;;
39750;SDS011;37579;51.074;17.004;2023-05-10T02:52:07;5.65;;;4.60;;
39750;SDS011;37579;51.074;17.004;2023-05-10T02:54:44;6.05;;;5.13;;
39750;SDS011;37579;51.074;17.004;2023-05-10T02:57:14;5.00;;;4.50;;
39750;SDS011;37579;51.074;17.004;2023-05-10T02:59:43;5.75;;;4.75;;
39750;SDS011;37579;51.074;17.004;2023-05-10T03:02:10;5.22;;;4.72;;
39750;SDS011;37579;51.074;17.004;2023-05-10T03:04:40;5.10;;;4.50;;
39750;SDS011;37579;51.074;17.004;2023-05-10T03:07:05;6.20;;;4.90;;
39750;SDS011;37579;51.074;17.004;2023-05-10T03:09:32;5.97;;;4.85;;
39750;SDS011;37579;51.074;17.004;2023-05-10T03:14:53;6.03;;;4.85;;
39750;SDS011;37579;51.074;17.004;2023-05-10T03:17:49;5.45;;;4.68;;
39750;SDS011;37579;51.074;17.004;2023-05-10T03:20:25;6.03;;;4.68;;
39750;SDS011;37579;51.074;17.004;2023-05-10T03:22:57;5.40;;;4.30;;
39750;SDS011;37579;51.074;17.004;2023-05-10T03:25:29;5.68;;;4.45;;
39750;SDS011;37579;51.074;17.004;2023-05-10T03:27:56;4.65;;;3.95;;
39750;SDS011;37579;51.074;17.004;2023-05-10T03:30:24;5.05;;;4.43;;
39750;SDS011;37579;51.074;17.004;2023-05-10T03:32:50;4.85;;;4.15;;
39750;SDS011;37579;51.074;17.004;2023-05-10T03:35:17;6.55;;;4.55;;
39750;SDS011;37579;51.074;17.004;2023-05-10T03:37:43;4.30;;;3.75;;
39750;SDS011;37579;51.074;17.004;2023-05-10T03:40:10;5.82;;;4.38;;
39750;SDS011;37579;51.074;17.004;2023-05-10T03:42:38;5.07;;;3.80;;
39750;SDS011;37579;51.074;17.004;2023-05-10T03:45:04;5.00;;;4.28;;
39750;SDS011;37579;51.074;17.004;2023-05-10T03:47:31;4.93;;;3.92;;
39750;SDS011;37579;51.074;17.004;2023-05-10T03:49:58;4.70;;;4.13;;
39750;SDS011;37579;51.074;17.004;2023-05-10T03:52:24;5.18;;;4.28;;
39750;SDS011;37579;51.074;17.004;2023-05-10T03:54:50;5.15;;;4.47;;
39750;SDS011;37579;51.074;17.004;2023-05-10T03:57:16;5.50;;;4.30;;
39750;SDS011;37579;51.074;17.004;2023-05-10T03:59:42;4.90;;;3.90;;
39750;SDS011;37579;51.074;17.004;2023-05-10T04:02:07;4.20;;;3.53;;
39750;SDS011;37579;51.074;17.004;2023-05-10T04:04:35;4.28;;;3.50;;
39750;SDS011;37579;51.074;17.004;2023-05-10T04:07:00;5.13;;;3.90;;
39750;SDS011;37579;51.074;17.004;2023-05-10T04:09:26;4.72;;;3.95;;
39750;SDS011;37579;51.074;17.004;2023-05-10T04:11:52;4.85;;;3.85;;
39750;SDS011;37579;51.074;17.004;2023-05-10T04:14:18;4.22;;;3.58;;
39750;SDS011;37579;51.074;17.004;2023-05-10T04:16:44;5.75;;;3.72;;
39750;SDS011;37579;51.074;17.004;2023-05-10T04:19:09;5.53;;;3.65;;
39750;SDS011;37579;51.074;17.004;2023-05-10T04:21:36;4.38;;;3.92;;
39750;SDS011;37579;51.074;17.004;2023-05-10T04:24:01;4.93;;;4.03;;
39750;SDS011;37579;51.074;17.004;2023-05-10T04:26:27;4.85;;;4.00;;
39750;SDS011;37579;51.074;17.004;2023-05-10T04:28:53;4.38;;;3.80;;
39750;SDS011;37579;51.074;17.004;2023-05-10T04:31:19;3.97;;;3.45;;
39750;SDS011;37579;51.074;17.004;2023-05-10T04:33:44;4.68;;;3.70;;
39750;SDS011;37579;51.074;17.004;2023-05-10T04:36:10;4.97;;;4.00;;
39750;SDS011;37579;51.074;17.004;2023-05-10T04:38:36;4.15;;;3.75;;
39750;SDS011;37579;51.074;17.004;2023-05-10T04:41:08;4.50;;;3.60;;
39750;SDS011;37579;51.074;17.004;2023-05-10T04:43:35;4.32;;;3.70;;
39750;SDS011;37579;51.074;17.004;2023-05-10T04:46:02;4.13;;;3.08;;
39750;SDS011;37579;51.074;17.004;2023-05-10T04:48:28;4.50;;;3.60;;
39750;SDS011;37579;51.074;17.004;2023-05-10T04:50:54;4.75;;;3.65;;
39750;SDS011;37579;51.074;17.004;2023-05-10T04:53:20;3.83;;;3.15;;
39750;SDS011;37579;51.074;17.004;2023-05-10T04:55:46;8.60;;;4.85;;
39750;SDS011;37579;51.074;17.004;2023-05-10T04:58:13;6.03;;;4.55;;
39750;SDS011;37579;51.074;17.004;2023-05-10T05:00:39;5.32;;;3.85;;
39750;SDS011;37579;51.074;17.004;2023-05-10T05:03:04;6.32;;;4.43;;
39750;SDS011;37579;51.074;17.004;2023-05-10T05:05:31;6.28;;;4.47;;
39750;SDS011;37579;51.074;17.004;2023-05-10T05:07:57;5.10;;;3.83;;
39750;SDS011;37579;51.074;17.004;2023-05-10T05:10:22;5.55;;;4.15;;
39750;SDS011;37579;51.074;17.004;2023-05-10T05:12:48;4.38;;;3.33;;
39750;SDS011;37579;51.074;17.004;2023-05-10T05:15:14;4.88;;;3.30;;
39750;SDS011;37579;51.074;17.004;2023-05-10T05:17:41;4.25;;;3.45;;
39750;SDS011;37579;51.074;17.004;2023-05-10T05:20:08;4.35;;;3.53;;
39750;SDS011;37579;51.074;17.004;2023-05-10T05:22:35;4.63;;;3.38;;
39750;SDS011;37579;51.074;17.004;2023-05-10T05:25:01;5.45;;;3.95;;
39750;SDS011;37579;51.074;17.004;2023-05-10T05:27:28;6.35;;;4.10;;
39750;SDS011;37579;51.074;17.004;2023-05-10T05:29:55;6.03;;;3.80;;
39750;SDS011;37579;51.074;17.004;2023-05-10T05:32:21;5.00;;;3.30;;
39750;SDS011;37579;51.074;17.004;2023-05-10T05:34:47;5.70;;;3.60;;
39750;SDS011;37579;51.074;17.004;2023-05-10T05:37:14;7.80;;;3.63;;
39750;SDS011;37579;51.074;17.004;2023-05-10T05:39:40;8.85;;;4.20;;
39750;SDS011;37579;51.074;17.004;2023-05-10T05:42:07;6.78;;;4.10;;
39750;SDS011;37579;51.074;17.004;2023-05-10T05:44:34;7.43;;;4.03;;
39750;SDS011;37579;51.074;17.004;2023-05-10T05:47:00;6.80;;;3.60;;
39750;SDS011;37579;51.074;17.004;2023-05-10T05:49:25;5.50;;;3.40;;
39750;SDS011;37579;51.074;17.004;2023-05-10T05:51:51;7.07;;;3.70;;
39750;SDS011;37579;51.074;17.004;2023-05-10T05:54:17;6.57;;;3.72;;
39750;SDS011;37579;51.074;17.004;2023-05-10T05:56:43;5.40;;;3.58;;
39750;SDS011;37579;51.074;17.004;2023-05-10T05:59:09;6.57;;;3.65;;
39750;SDS011;37579;51.074;17.004;2023-05-10T06:01:36;7.78;;;3.88;;
39750;SDS011;37579;51.074;17.004;2023-05-10T06:04:02;9.82;;;3.80;;
39750;SDS011;37579;51.074;17.004;2023-05-10T06:06:27;4.72;;;3.35;;
39750;SDS011;37579;51.074;17.004;2023-05-10T06:08:53;5.53;;;3.28;;
39750;SDS011;37579;51.074;17.004;2023-05-10T06:11:19;4.85;;;3.53;;
39750;SDS011;37579;51.074;17.004;2023-05-10T06:13:46;5.10;;;4.25;;
39750;SDS011;37579;51.074;17.004;2023-05-10T06:16:12;7.85;;;4.28;;
39750;SDS011;37579;51.074;17.004;2023-05-10T06:18:38;5.82;;;3.92;;
39750;SDS011;37579;51.074;17.004;2023-05-10T06:21:04;5.47;;;3.67;;
39750;SDS011;37579;51.074;17.004;2023-05-10T06:23:30;6.82;;;3.53;;
39750;SDS011;37579;51.074;17.004;2023-05-10T06:25:56;8.07;;;3.92;;
39750;SDS011;37579;51.074;17.004;2023-05-10T06:28:21;4.80;;;3.35;;
39750;SDS011;37579;51.074;17.004;2023-05-10T06:30:47;4.28;;;3.28;;
39750;SDS011;37579;51.074;17.004;2023-05-10T06:33:13;5.75;;;3.40;;
39750;SDS011;37579;51.074;17.004;2023-05-10T06:35:41;6.72;;;3.50;;
39750;SDS011;37579;51.074;17.004;2023-05-10T06:38:06;6.18;;;3.47;;
39750;SDS011;37579;51.074;17.004;2023-05-10T06:40:32;6.25;;;3.22;;
39750;SDS011;37579;51.074;17.004;2023-05-10T06:42:58;7.28;;;3.55;;
39750;SDS011;37579;51.074;17.004;2023-05-10T06:45:24;5.75;;;3.60;;
39750;SDS011;37579;51.074;17.004;2023-05-10T06:47:50;7.82;;;3.17;;
39750;SDS011;37579;51.074;17.004;2023-05-10T06:50:16;7.50;;;3.33;;
39750;SDS011;37579;51.074;17.004;2023-05-10T06:52:42;6.00;;;3.47;;
39750;SDS011;37579;51.074;17.004;2023-05-10T06:55:07;5.95;;;3.70;;
39750;SDS011;37579;51.074;17.004;2023-05-10T06:57:34;7.13;;;3.70;;
39750;SDS011;37579;51.074;17.004;2023-05-10T07:00:00;9.45;;;4.10;;
39750;SDS011;37579;51.074;17.004;2023-05-10T07:02:26;6.45;;;3.40;;
39750;SDS011;37579;51.074;17.004;2023-05-10T07:04:52;9.23;;;3.67;;
39750;SDS011;37579;51.074;17.004;2023-05-10T07:07:19;6.88;;;3.30;;
39750;SDS011;37579;51.074;17.004;2023-05-10T07:09:45;6.65;;;3.88;;
39750;SDS011;37579;51.074;17.004;2023-05-10T07:12:11;7.15;;;3.38;;
39750;SDS011;37579;51.074;17.004;2023-05-10T07:14:36;6.00;;;3.10;;
39750;SDS011;37579;51.074;17.004;2023-05-10T07:17:02;5.38;;;3.15;;
39750;SDS011;37579;51.074;17.004;2023-05-10T07:19:28;4.93;;;3.30;;
39750;SDS011;37579;51.074;17.004;2023-05-10T07:21:54;6.03;;;3.38;;
39750;SDS011;37579;51.074;17.004;2023-05-10T07:24:20;5.30;;;3.05;;
39750;SDS011;37579;51.074;17.004;2023-05-10T07:26:46;4.40;;;2.90;;
39750;SDS011;37579;51.074;17.004;2023-05-10T07:29:12;5.85;;;3.33;;
39750;SDS011;37579;51.074;17.004;2023-05-10T07:31:38;5.13;;;3.33;;
39750;SDS011;37579;51.074;17.004;2023-05-10T07:34:03;8.27;;;3.15;;
39750;SDS011;37579;51.074;17.004;2023-05-10T07:36:30;5.22;;;3.17;;
39750;SDS011;37579;51.074;17.004;2023-05-10T07:38:56;6.82;;;3.20;;
39750;SDS011;37579;51.074;17.004;2023-05-10T07:41:22;7.38;;;2.92;;
39750;SDS011;37579;51.074;17.004;2023-05-10T07:43:48;5.35;;;2.97;;
39750;SDS011;37579;51.074;17.004;2023-05-10T07:46:14;6.65;;;3.47;;
39750;SDS011;37579;51.074;17.004;2023-05-10T07:48:40;7.28;;;3.70;;
39750;SDS011;37579;51.074;17.004;2023-05-10T07:51:06;9.70;;;3.85;;
39750;SDS011;37579;51.074;17.004;2023-05-10T07:53:34;6.50;;;3.33;;
39750;SDS011;37579;51.074;17.004;2023-05-10T07:56:19;4.28;;;3.20;;
39750;SDS011;37579;51.074;17.004;2023-05-10T07:58:46;5.10;;;3.38;;
39750;SDS011;37579;51.074;17.004;2023-05-10T08:01:12;8.02;;;3.22;;
39750;SDS011;37579;51.074;17.004;2023-05-10T08:03:38;4.88;;;3.10;;
39750;SDS011;37579;51.074;17.004;2023-05-10T08:06:04;5.28;;;3.40;;
39750;SDS011;37579;51.074;17.004;2023-05-10T08:08:31;4.55;;;2.70;;
39750;SDS011;37579;51.074;17.004;2023-05-10T08:10:56;4.70;;;3.00;;
39750;SDS011;37579;51.074;17.004;2023-05-10T08:13:22;5.00;;;2.55;;
39750;SDS011;37579;51.074;17.004;2023-05-10T08:15:48;4.38;;;2.72;;
39750;SDS011;37579;51.074;17.004;2023-05-10T08:18:14;4.13;;;2.28;;
39750;SDS011;37579;51.074;17.004;2023-05-10T08:20:40;3.35;;;2.50;;
39750;SDS011;37579;51.074;17.004;2023-05-10T08:23:06;3.47;;;2.75;;
39750;SDS011;37579;51.074;17.004;2023-05-10T08:25:31;6.38;;;2.85;;
39750;SDS011;37579;51.074;17.004;2023-05-10T08:27:57;6.18;;;2.58;;
39750;SDS011;37579;51.074;17.004;2023-05-10T08:30:23;3.63;;;2.40;;
39750;SDS011;37579;51.074;17.004;2023-05-10T08:32:49;5.15;;;2.58;;
39750;SDS011;37579;51.074;17.004;2023-05-10T08:35:15;4.53;;;2.30;;
39750;SDS011;37579;51.074;17.004;2023-05-10T08:37:41;3.55;;;2.60;;
39750;SDS011;37579;51.074;17.004;2023-05-10T08:40:07;3.85;;;2.03;;
39750;SDS011;37579;51.074;17.004;2023-05-10T08:42:36;3.88;;;2.13;;
39750;SDS011;37579;51.074;17.004;2023-05-10T08:45:06;4.85;;;2.30;;
39750;SDS011;37579;51.074;17.004;2023-05-10T08:47:34;3.67;;;1.90;;
39750;SDS011;37579;51.074;17.004;2023-05-10T08:50:03;5.05;;;2.35;;
39750;SDS011;37579;51.074;17.004;2023-05-10T08:52:29;2.67;;;2.13;;
39750;SDS011;37579;51.074;17.004;2023-05-10T08:54:57;3.85;;;2.17;;
39750;SDS011;37579;51.074;17.004;2023-05-10T08:57:23;7.97;;;2.70;;
39750;SDS011;37579;51.074;17.004;2023-05-10T08:59:50;4.30;;;2.15;;
39750;SDS011;37579;51.074;17.004;2023-05-10T09:02:15;4.72;;;2.15;;
39750;SDS011;37579;51.074;17.004;2023-05-10T09:04:45;4.70;;;1.98;;
39750;SDS011;37579;51.074;17.004;2023-05-10T09:07:10;2.80;;;2.05;;
39750;SDS011;37579;51.074;17.004;2023-05-10T09:09:37;4.13;;;2.20;;
39750;SDS011;37579;51.074;17.004;2023-05-10T09:12:03;4.90;;;2.13;;
39750;SDS011;37579;51.074;17.004;2023-05-10T09:14:29;3.65;;;2.40;;
39750;SDS011;37579;51.074;17.004;2023-05-10T09:16:59;3.72;;;2.20;;
39750;SDS011;37579;51.074;17.004;2023-05-10T09:19:25;4.30;;;1.80;;
39750;SDS011;37579;51.074;17.004;2023-05-10T09:21:52;6.07;;;2.05;;
39750;SDS011;37579;51.074;17.004;2023-05-10T09:24:18;3.85;;;1.98;;
39750;SDS011;37579;51.074;17.004;2023-05-10T09:26:47;2.92;;;1.73;;
39750;SDS011;37579;51.074;17.004;2023-05-10T09:29:14;3.58;;;2.55;;
39750;SDS011;37579;51.074;17.004;2023-05-10T09:34:19;2.40;;;2.05;;
39750;SDS011;37579;51.074;17.004;2023-05-10T09:39:20;3.08;;;2.15;;
39750;SDS011;37579;51.074;17.004;2023-05-10T09:41:46;3.03;;;1.85;;
39750;SDS011;37579;51.074;17.004;2023-05-10T09:44:15;2.70;;;2.00;;
39750;SDS011;37579;51.074;17.004;2023-05-10T09:46:48;4.13;;;1.70;;
39750;SDS011;37579;51.074;17.004;2023-05-10T09:49:14;3.25;;;2.00;;
39750;SDS011;37579;51.074;17.004;2023-05-10T09:51:40;3.95;;;2.20;;
39750;SDS011;37579;51.074;17.004;2023-05-10T09:54:16;3.10;;;1.80;;
39750;SDS011;37579;51.074;17.004;2023-05-10T09:56:42;4.60;;;2.45;;
39750;SDS011;37579;51.074;17.004;2023-05-10T09:59:11;3.85;;;2.10;;
39750;SDS011;37579;51.074;17.004;2023-05-10T10:01:38;3.38;;;1.95;;
39750;SDS011;37579;51.074;17.004;2023-05-10T10:04:08;3.38;;;1.75;;
39750;SDS011;37579;51.074;17.004;2023-05-10T10:06:38;3.53;;;2.22;;
39750;SDS011;37579;51.074;17.004;2023-05-10T10:09:05;3.15;;;1.83;;
39750;SDS011;37579;51.074;17.004;2023-05-10T10:11:31;3.47;;;1.63;;
39750;SDS011;37579;51.074;17.004;2023-05-10T10:13:59;3.03;;;1.95;;
39750;SDS011;37579;51.074;17.004;2023-05-10T10:16:26;7.38;;;1.92;;
39750;SDS011;37579;51.074;17.004;2023-05-10T10:18:54;5.95;;;1.83;;
39750;SDS011;37579;51.074;17.004;2023-05-10T10:21:21;2.90;;;1.40;;
39750;SDS011;37579;51.074;17.004;2023-05-10T10:23:47;3.28;;;1.73;;
39750;SDS011;37579;51.074;17.004;2023-05-10T10:26:13;5.00;;;1.70;;
39750;SDS011;37579;51.074;17.004;2023-05-10T10:31:36;2.55;;;1.52;;
39750;SDS011;37579;51.074;17.004;2023-05-10T10:34:08;4.53;;;2.00;;
39750;SDS011;37579;51.074;17.004;2023-05-10T10:36:47;3.28;;;1.67;;
39750;SDS011;37579;51.074;17.004;2023-05-10T10:39:13;2.60;;;1.55;;
39750;SDS011;37579;51.074;17.004;2023-05-10T10:41:49;3.10;;;1.70;;
39750;SDS011;37579;51.074;17.004;2023-05-10T10:49:27;2.33;;;1.58;;
39750;SDS011;37579;51.074;17.004;2023-05-10T11:07:58;2.75;;;1.90;;
39750;SDS011;37579;51.074;17.004;2023-05-10T11:10:25;1.85;;;1.30;;
39750;SDS011;37579;51.074;17.004;2023-05-10T11:13:01;2.95;;;1.73;;
39750;SDS011;37579;51.074;17.004;2023-05-10T11:15:30;2.83;;;1.80;;
39750;SDS011;37579;51.074;17.004;2023-05-10T11:18:19;4.18;;;1.30;;
39750;SDS011;37579;51.074;17.004;2023-05-10T11:20:50;6.72;;;1.60;;
39750;SDS011;37579;51.074;17.004;2023-05-10T11:23:29;2.28;;;1.63;;
39750;SDS011;37579;51.074;17.004;2023-05-10T11:26:14;3.25;;;1.65;;
39750;SDS011;37579;51.074;17.004;2023-05-10T11:28:43;2.58;;;1.50;;
39750;SDS011;37579;51.074;17.004;2023-05-10T11:31:10;1.65;;;1.33;;
39750;SDS011;37579;51.074;17.004;2023-05-10T11:33:51;4.50;;;1.40;;
39750;SDS011;37579;51.074;17.004;2023-05-10T11:36:19;4.53;;;1.80;;
39750;SDS011;37579;51.074;17.004;2023-05-10T11:38:51;3.92;;;1.77;;
39750;SDS011;37579;51.074;17.004;2023-05-10T11:41:18;3.00;;;1.73;;
39750;SDS011;37579;51.074;17.004;2023-05-10T11:43:47;2.80;;;1.50;;
39750;SDS011;37579;51.074;17.004;2023-05-10T11:46:14;2.58;;;1.70;;
39750;SDS011;37579;51.074;17.004;2023-05-10T11:48:42;2.80;;;1.70;;
39750;SDS011;37579;51.074;17.004;2023-05-10T11:51:08;4.40;;;1.67;;
39750;SDS011;37579;51.074;17.004;2023-05-10T11:53:35;3.72;;;1.70;;
39750;SDS011;37579;51.074;17.004;2023-05-10T11:56:08;2.25;;;1.67;;
39750;SDS011;37579;51.074;17.004;2023-05-10T11:58:35;2.95;;;1.80;;
39750;SDS011;37579;51.074;17.004;2023-05-10T12:01:03;2.70;;;1.58;;
39750;SDS011;37579;51.074;17.004;2023-05-10T12:03:30;3.38;;;1.83;;
39750;SDS011;37579;51.074;17.004;2023-05-10T12:05:56;3.30;;;1.70;;
39750;SDS011;37579;51.074;17.004;2023-05-10T12:08:24;4.20;;;1.98;;
39750;SDS011;37579;51.074;17.004;2023-05-10T12:10:52;3.78;;;1.98;;
39750;SDS011;37579;51.074;17.004;2023-05-10T12:13:19;3.05;;;1.70;;
39750;SDS011;37579;51.074;17.004;2023-05-10T12:15:45;2.78;;;1.60;;
39750;SDS011;37579;51.074;17.004;2023-05-10T12:18:12;2.40;;;1.50;;
39750;SDS011;37579;51.074;17.004;2023-05-10T12:20:39;2.80;;;1.70;;
39750;SDS011;37579;51.074;17.004;2023-05-10T12:23:07;3.25;;;1.48;;
39750;SDS011;37579;51.074;17.004;2023-05-10T12:25:35;2.75;;;1.40;;
39750;SDS011;37579;51.074;17.004;2023-05-10T12:28:03;2.35;;;1.52;;
39750;SDS011;37579;51.074;17.004;2023-05-10T12:30:31;1.77;;;1.48;;
39750;SDS011;37579;51.074;17.004;2023-05-10T12:33:02;2.08;;;1.50;;
39750;SDS011;37579;51.074;17.004;2023-05-10T12:35:43;3.05;;;1.58;;
39750;SDS011;37579;51.074;17.004;2023-05-10T12:38:26;1.55;;;1.40;;
39750;SDS011;37579;51.074;17.004;2023-05-10T12:40:55;3.00;;;1.65;;
39750;SDS011;37579;51.074;17.004;2023-05-10T12:43:22;3.50;;;1.67;;
39750;SDS011;37579;51.074;17.004;2023-05-10T12:45:48;2.38;;;1.20;;
39750;SDS011;37579;51.074;17.004;2023-05-10T12:48:14;4.05;;;2.03;;
39750;SDS011;37579;51.074;17.004;2023-05-10T12:50:40;2.10;;;1.70;;
39750;SDS011;37579;51.074;17.004;2023-05-10T12:53:06;3.95;;;1.70;;
39750;SDS011;37579;51.074;17.004;2023-05-10T12:55:32;2.80;;;1.75;;
39750;SDS011;37579;51.074;17.004;2023-05-10T12:57:58;2.80;;;1.90;;
39750;SDS011;37579;51.074;17.004;2023-05-10T13:00:24;3.83;;;1.65;;
39750;SDS011;37579;51.074;17.004;2023-05-10T13:02:50;4.47;;;1.45;;
39750;SDS011;37579;51.074;17.004;2023-05-10T13:05:15;2.38;;;1.35;;
39750;SDS011;37579;51.074;17.004;2023-05-10T13:07:41;2.03;;;1.45;;
39750;SDS011;37579;51.074;17.004;2023-05-10T13:10:09;2.40;;;1.40;;
39750;SDS011;37579;51.074;17.004;2023-05-10T13:12:35;7.10;;;1.60;;
39750;SDS011;37579;51.074;17.004;2023-05-10T13:15:01;2.72;;;1.38;;
39750;SDS011;37579;51.074;17.004;2023-05-10T13:17:28;3.83;;;1.42;;
39750;SDS011;37579;51.074;17.004;2023-05-10T13:19:54;3.45;;;1.88;;
39750;SDS011;37579;51.074;17.004;2023-05-10T13:22:20;6.97;;;1.38;;
39750;SDS011;37579;51.074;17.004;2023-05-10T13:24:46;4.50;;;1.58;;
39750;SDS011;37579;51.074;17.004;2023-05-10T13:27:12;2.70;;;1.63;;
39750;SDS011;37579;51.074;17.004;2023-05-10T13:29:38;7.82;;;1.77;;
39750;SDS011;37579;51.074;17.004;2023-05-10T13:32:04;6.53;;;1.95;;
39750;SDS011;37579;51.074;17.004;2023-05-10T13:34:30;7.45;;;1.73;;
39750;SDS011;37579;51.074;17.004;2023-05-10T13:36:56;7.75;;;1.63;;
39750;SDS011;37579;51.074;17.004;2023-05-10T13:39:22;5.75;;;2.10;;
39750;SDS011;37579;51.074;17.004;2023-05-10T13:41:48;4.50;;;1.83;;
39750;SDS011;37579;51.074;17.004;2023-05-10T13:44:14;3.70;;;1.40;;
39750;SDS011;37579;51.074;17.004;2023-05-10T13:46:41;4.95;;;2.10;;
39750;SDS011;37579;51.074;17.004;2023-05-10T13:49:08;5.53;;;1.85;;
39750;SDS011;37579;51.074;17.004;2023-05-10T13:51:34;3.72;;;1.45;;
39750;SDS011;37579;51.074;17.004;2023-05-10T13:54:01;4.63;;;1.80;;
39750;SDS011;37579;51.074;17.004;2023-05-10T13:56:27;5.20;;;1.42;;
39750;SDS011;37579;51.074;17.004;2023-05-10T13:58:53;6.07;;;1.73;;
39750;SDS011;37579;51.074;17.004;2023-05-10T14:01:19;3.85;;;2.05;;
39750;SDS011;37579;51.074;17.004;2023-05-10T14:03:45;3.53;;;1.40;;
39750;SDS011;37579;51.074;17.004;2023-05-10T14:06:11;4.20;;;1.42;;
39750;SDS011;37579;51.074;17.004;2023-05-10T14:08:37;4.80;;;1.73;;
39750;SDS011;37579;51.074;17.004;2023-05-10T14:11:03;2.70;;;1.60;;
39750;SDS011;37579;51.074;17.004;2023-05-10T14:13:29;2.47;;;1.30;;
39750;SDS011;37579;51.074;17.004;2023-05-10T14:15:55;3.90;;;1.42;;
39750;SDS011;37579;51.074;17.004;2023-05-10T14:18:21;1.83;;;0.93;;
39750;SDS011;37579;51.074;17.004;2023-05-10T14:20:47;2.35;;;1.30;;
39750;SDS011;37579;51.074;17.004;2023-05-10T14:23:13;3.72;;;1.38;;
39750;SDS011;37579;51.074;17.004;2023-05-10T14:25:40;3.10;;;1.50;;
39750;SDS011;37579;51.074;17.004;2023-05-10T14:28:06;3.67;;;1.20;;
39750;SDS011;37579;51.074;17.004;2023-05-10T14:30:32;2.83;;;1.00;;
39750;SDS011;37579;51.074;17.004;2023-05-10T14:32:59;2.33;;;1.30;;
39750;SDS011;37579;51.074;17.004;2023-05-10T14:35:27;2.85;;;1.23;;
39750;SDS011;37579;51.074;17.004;2023-05-10T14:37:53;2.28;;;1.20;;
39750;SDS011;37579;51.074;17.004;2023-05-10T14:40:19;1.75;;;1.25;;
39750;SDS011;37579;51.074;17.004;2023-05-10T14:42:46;2.70;;;1.38;;
39750;SDS011;37579;51.074;17.004;2023-05-10T14:45:12;1.95;;;1.17;;
39750;SDS011;37579;51.074;17.004;2023-05-10T14:47:38;3.25;;;1.85;;
39750;SDS011;37579;51.074;17.004;2023-05-10T14:50:04;1.88;;;1.50;;
39750;SDS011;37579;51.074;17.004;2023-05-10T14:52:30;1.67;;;1.10;;
39750;SDS011;37579;51.074;17.004;2023-05-10T14:54:56;3.75;;;1.30;;
39750;SDS011;37579;51.074;17.004;2023-05-10T14:57:24;1.60;;;1.25;;
39750;SDS011;37579;51.074;17.004;2023-05-10T14:59:50;1.25;;;1.10;;
39750;SDS011;37579;51.074;17.004;2023-05-10T15:02:16;1.98;;;1.17;;
39750;SDS011;37579;51.074;17.004;2023-05-10T15:04:42;1.75;;;1.23;;
39750;SDS011;37579;51.074;17.004;2023-05-10T15:07:08;2.60;;;1.10;;
39750;SDS011;37579;51.074;17.004;2023-05-10T15:09:34;1.67;;;1.08;;
39750;SDS011;37579;51.074;17.004;2023-05-10T15:12:00;1.63;;;1.35;;
39750;SDS011;37579;51.074;17.004;2023-05-10T15:14:25;1.55;;;0.90;;
39750;SDS011;37579;51.074;17.004;2023-05-10T15:16:51;1.80;;;1.10;;
39750;SDS011;37579;51.074;17.004;2023-05-10T15:19:18;1.88;;;1.08;;
39750;SDS011;37579;51.074;17.004;2023-05-10T15:21:44;1.27;;;1.00;;
39750;SDS011;37579;51.074;17.004;2023-05-10T15:24:12;1.63;;;1.10;;
39750;SDS011;37579;51.074;17.004;2023-05-10T15:26:38;2.33;;;1.27;;